sensor_id;sensor_type;location;lat;lon;timestamp;pressure;altitude;pressure_sealevel;temperature;humidity
19748;BME280;10032;51.386;12.516;2024-03-08T00:01:28;100807.09;;;1.39;100.00
19748;BME280;10032;51.386;12.516;2024-03-08T00:03:53;100803.59;;;1.39;100.00
19748;BME280;10032;51.386;12.516;2024-03-08T00:06:19;100806.09;;;1.40;100.00
19748;BME280;10032;51.386;12.516;2024-03-08T00:08:44;100806.09;;;1.40;100.00
19748;BME280;10032;51.386;12.516;2024-03-08T00:11:09;100799.06;;;1.39;100.00
19748;BME280;10032;51.386;12.516;2024-03-08T00:13:35;100802.75;;;1.38;100.00
19748;BME280;10032;51.386;12.516;2024-03-08T00:16:01;100799.91;;;1.40;100.00
19748;BME280;10032;51.386;12.516;2024-03-08T00:18:27;100798.75;;;1.42;100.00
19748;BME280;10032;51.386;12.516;2024-03-08T00:20:52;100791.38;;;1.44;100.00
19748;BME280;10032;51.386;12.516;2024-03-08T00:23:18;100794.25;;;1.43;100.00
19748;BME280;10032;51.386;12.516;2024-03-08T00:25:43;100787.22;;;1.42;100.00
19748;BME280;10032;51.386;12.516;2024-03-08T00:28:08;100791.75;;;1.41;100.00
19748;BME280;10032;51.386;12.516;2024-03-08T00:30:38;100792.44;;;1.35;100.00
19748;BME280;10032;51.386;12.516;2024-03-08T00:33:04;100793.78;;;1.31;100.00
19748;BME280;10032;51.386;12.516;2024-03-08T00:35:29;100800.16;;;1.30;100.00
19748;BME280;10032;51.386;12.516;2024-03-08T00:37:55;100792.63;;;1.26;100.00
19748;BME280;10032;51.386;12.516;2024-03-08T00:40:22;100788.84;;;1.20;100.00
19748;BME280;10032;51.386;12.516;2024-03-08T00:42:47;100794.53;;;1.17;100.00
19748;BME280;10032;51.386;12.516;2024-03-08T00:45:13;100798.19;;;1.16;100.00
19748;BME280;10032;51.386;12.516;2024-03-08T00:47:38;100801.22;;;1.13;100.00
19748;BME280;10032;51.386;12.516;2024-03-08T00:50:04;100793.22;;;1.13;100.00
19748;BME280;10032;51.386;12.516;2024-03-08T00:52:30;100788.22;;;1.10;100.00
19748;BME280;10032;51.386;12.516;2024-03-08T00:54:55;100782.41;;;1.07;100.00
19748;BME280;10032;51.386;12.516;2024-03-08T00:57:21;100785.41;;;1.04;100.00
19748;BME280;10032;51.386;12.516;2024-03-08T00:59:47;100774.25;;;1.00;100.00
19748;BME280;10032;51.386;12.516;2024-03-08T01:02:13;100784.94;;;1.00;100.00
19748;BME280;10032;51.386;12.516;2024-03-08T01:04:38;100774.44;;;0.99;100.00
19748;BME280;10032;51.386;12.516;2024-03-08T01:07:04;100787.94;;;0.97;100.00
19748;BME280;10032;51.386;12.516;2024-03-08T01:09:29;100780.28;;;0.94;100.00
19748;BME280;10032;51.386;12.516;2024-03-08T01:11:55;100774.78;;;0.96;100.00
19748;BME280;10032;51.386;12.516;2024-03-08T01:14:22;100772.63;;;0.91;100.00
19748;BME280;10032;51.386;12.516;2024-03-08T01:16:48;100777.63;;;0.94;100.00
19748;BME280;10032;51.386;12.516;2024-03-08T01:19:14;100762.44;;;0.95;100.00
19748;BME280;10032;51.386;12.516;2024-03-08T01:21:40;100764.63;;;0.91;100.00
19748;BME280;10032;51.386;12.516;2024-03-08T01:24:06;100760.28;;;0.90;100.00
19748;BME280;10032;51.386;12.516;2024-03-08T01:26:32;100759.97;;;0.93;100.00
19748;BME280;10032;51.386;12.516;2024-03-08T01:28:59;100761.63;;;0.94;100.00
19748;BME280;10032;51.386;12.516;2024-03-08T01:31:24;100758.78;;;0.96;100.00
19748;BME280;10032;51.386;12.516;2024-03-08T01:33:50;100752.59;;;0.95;100.00
19748;BME280;10032;51.386;12.516;2024-03-08T01:36:15;100751.28;;;0.91;100.00
19748;BME280;10032;51.386;12.516;2024-03-08T01:38:42;100746.66;;;0.85;100.00
19748;BME280;10032;51.386;12.516;2024-03-08T01:41:08;100742.66;;;0.81;100.00
19748;BME280;10032;51.386;12.516;2024-03-08T01:43:34;100731.81;;;0.83;100.00
19748;BME280;10032;51.386;12.516;2024-03-08T01:45:59;100732.31;;;0.86;100.00
19748;BME280;10032;51.386;12.516;2024-03-08T01:48:27;100731.31;;;0.87;100.00
19748;BME280;10032;51.386;12.516;2024-03-08T01:50:55;100726.00;;;0.87;100.00
19748;BME280;10032;51.386;12.516;2024-03-08T01:53:21;100731.63;;;0.92;100.00
19748;BME280;10032;51.386;12.516;2024-03-08T01:55:48;100723.97;;;0.89;100.00
19748;BME280;10032;51.386;12.516;2024-03-08T01:58:14;100724.63;;;0.91;100.00
19748;BME280;10032;51.386;12.516;2024-03-08T02:00:46;100720.13;;;0.92;100.00
19748;BME280;10032;51.386;12.516;2024-03-08T02:03:15;100722.66;;;0.85;100.00
19748;BME280;10032;51.386;12.516;2024-03-08T02:05:41;100729.00;;;0.84;100.00
19748;BME280;10032;51.386;12.516;2024-03-08T02:08:06;100721.63;;;0.86;100.00
19748;BME280;10032;51.386;12.516;2024-03-08T02:10:35;100721.63;;;0.86;100.00
19748;BME280;10032;51.386;12.516;2024-03-08T02:13:02;100724.50;;;0.85;100.00
19748;BME280;10032;51.386;12.516;2024-03-08T02:15:54;100717.69;;;0.82;100.00
19748;BME280;10032;51.386;12.516;2024-03-08T02:18:20;100716.66;;;0.83;100.00
19748;BME280;10032;51.386;12.516;2024-03-08T02:20:47;100716.66;;;0.83;100.00
19748;BME280;10032;51.386;12.516;2024-03-08T02:23:14;100712.16;;;0.84;100.00
19748;BME280;10032;51.386;12.516;2024-03-08T02:25:40;100703.16;;;0.85;100.00
19748;BME280;10032;51.386;12.516;2024-03-08T02:28:06;100715.34;;;0.79;100.00
19748;BME280;10032;51.386;12.516;2024-03-08T02:30:34;100712.03;;;0.77;100.00
19748;BME280;10032;51.386;12.516;2024-03-08T02:32:59;100711.56;;;0.74;100.00
19748;BME280;10032;51.386;12.516;2024-03-08T02:35:24;100711.19;;;0.77;100.00
19748;BME280;10032;51.386;12.516;2024-03-08T02:37:50;100708.03;;;0.73;100.00
19748;BME280;10032;51.386;12.516;2024-03-08T02:40:15;100702.88;;;0.72;100.00
19748;BME280;10032;51.386;12.516;2024-03-08T02:42:41;100705.72;;;0.70;100.00
19748;BME280;10032;51.386;12.516;2024-03-08T02:45:07;100706.06;;;0.67;100.00
19748;BME280;10032;51.386;12.516;2024-03-08T02:47:35;100705.06;;;0.68;100.00
19748;BME280;10032;51.386;12.516;2024-03-08T02:50:00;100693.91;;;0.65;100.00
19748;BME280;10032;51.386;12.516;2024-03-08T02:52:27;100700.59;;;0.61;100.00
19748;BME280;10032;51.386;12.516;2024-03-08T02:54:52;100702.63;;;0.59;100.00
19748;BME280;10032;51.386;12.516;2024-03-08T02:57:17;100705.91;;;0.61;100.00
19748;BME280;10032;51.386;12.516;2024-03-08T02:59:43;100694.78;;;0.57;100.00
19748;BME280;10032;51.386;12.516;2024-03-08T03:02:09;100699.25;;;0.57;100.00
19748;BME280;10032;51.386;12.516;2024-03-08T03:04:35;100691.09;;;0.58;100.00
19748;BME280;10032;51.386;12.516;2024-03-08T03:07:01;100692.75;;;0.59;100.00
19748;BME280;10032;51.386;12.516;2024-03-08T03:09:26;100690.78;;;0.61;100.00
19748;BME280;10032;51.386;12.516;2024-03-08T03:11:55;100688.59;;;0.57;100.00
19748;BME280;10032;51.386;12.516;2024-03-08T03:14:22;100698.09;;;0.59;100.00
19748;BME280;10032;51.386;12.516;2024-03-08T03:16:47;100691.09;;;0.58;100.00
19748;BME280;10032;51.386;12.516;2024-03-08T03:19:13;100684.13;;;0.57;100.00
19748;BME280;10032;51.386;12.516;2024-03-08T03:21:38;100696.59;;;0.57;100.00
19748;BME280;10032;51.386;12.516;2024-03-08T03:24:04;100688.59;;;0.57;100.00
19748;BME280;10032;51.386;12.516;2024-03-08T03:26:38;100684.13;;;0.57;100.00
19748;BME280;10032;51.386;12.516;2024-03-08T03:29:07;100679.13;;;0.54;100.00
19748;BME280;10032;51.386;12.516;2024-03-08T03:31:34;100676.66;;;0.53;100.00
19748;BME280;10032;51.386;12.516;2024-03-08T03:34:00;100670.97;;;0.56;100.00
19748;BME280;10032;51.386;12.516;2024-03-08T03:36:31;100678.16;;;0.55;100.00
19748;BME280;10032;51.386;12.516;2024-03-08T03:38:57;100666.47;;;0.56;100.00
19748;BME280;10032;51.386;12.516;2024-03-08T03:41:32;100677.13;;;0.56;100.00
19748;BME280;10032;51.386;12.516;2024-03-08T03:43:57;100682.47;;;0.56;100.00
19748;BME280;10032;51.386;12.516;2024-03-08T03:46:24;100674.09;;;0.59;100.00
19748;BME280;10032;51.386;12.516;2024-03-08T03:48:49;100680.44;;;0.58;100.00
19748;BME280;10032;51.386;12.516;2024-03-08T03:51:14;100677.78;;;0.58;100.00
19748;BME280;10032;51.386;12.516;2024-03-08T03:53:40;100662.44;;;0.60;100.00
19748;BME280;10032;51.386;12.516;2024-03-08T03:56:06;100669.63;;;0.60;100.00
19748;BME280;10032;51.386;12.516;2024-03-08T03:58:32;100673.09;;;0.60;100.00
19748;BME280;10032;51.386;12.516;2024-03-08T04:00:58;100674.78;;;0.61;100.00
19748;BME280;10032;51.386;12.516;2024-03-08T04:03:23;100674.78;;;0.61;100.00
19748;BME280;10032;51.386;12.516;2024-03-08T04:05:49;100665.09;;;0.60;100.00
19748;BME280;10032;51.386;12.516;2024-03-08T04:08:14;100672.13;;;0.61;100.00
19748;BME280;10032;51.386;12.516;2024-03-08T04:10:40;100661.16;;;0.56;100.00
19748;BME280;10032;51.386;12.516;2024-03-08T04:13:07;100664.63;;;0.57;100.00
19748;BME280;10032;51.386;12.516;2024-03-08T04:15:34;100668.47;;;0.54;100.00
19748;BME280;10032;51.386;12.516;2024-03-08T04:18:00;100665.78;;;0.54;100.00
19748;BME280;10032;51.386;12.516;2024-03-08T04:20:25;100666.81;;;0.53;100.00
19748;BME280;10032;51.386;12.516;2024-03-08T04:22:51;100663.13;;;0.54;100.00
19748;BME280;10032;51.386;12.516;2024-03-08T04:25:17;100660.47;;;0.54;100.00
19748;BME280;10032;51.386;12.516;2024-03-08T04:27:42;100661.47;;;0.53;100.00
19748;BME280;10032;51.386;12.516;2024-03-08T04:30:08;100662.66;;;0.51;100.00
19748;BME280;10032;51.386;12.516;2024-03-08T04:32:34;100660.66;;;0.53;100.00
19748;BME280;10032;51.386;12.516;2024-03-08T04:34:59;100657.31;;;0.51;100.00
19748;BME280;10032;51.386;12.516;2024-03-08T04:37:27;100656.19;;;0.45;100.00
19748;BME280;10032;51.386;12.516;2024-03-08T04:39:54;100656.84;;;0.47;100.00
19748;BME280;10032;51.386;12.516;2024-03-08T04:42:20;100644.53;;;0.46;100.00
19748;BME280;10032;51.386;12.516;2024-03-08T04:44:46;100651.50;;;0.47;100.00
19748;BME280;10032;51.386;12.516;2024-03-08T04:47:11;100653.53;;;0.45;100.00
19748;BME280;10032;51.386;12.516;2024-03-08T04:49:37;100640.38;;;0.44;100.00
19748;BME280;10032;51.386;12.516;2024-03-08T04:52:03;100649.84;;;0.46;100.00
19748;BME280;10032;51.386;12.516;2024-03-08T04:54:29;100649.00;;;0.46;100.00
19748;BME280;10032;51.386;12.516;2024-03-08T04:56:54;100643.34;;;0.49;100.00
19748;BME280;10032;51.386;12.516;2024-03-08T04:59:20;100642.88;;;0.45;100.00
19748;BME280;10032;51.386;12.516;2024-03-08T05:01:45;100640.53;;;0.42;100.00
19748;BME280;10032;51.386;12.516;2024-03-08T05:04:10;100642.88;;;0.37;100.00
19748;BME280;10032;51.386;12.516;2024-03-08T05:06:36;100641.41;;;0.35;100.00
19748;BME280;10032;51.386;12.516;2024-03-08T05:09:02;100640.59;;;0.34;100.00
19748;BME280;10032;51.386;12.516;2024-03-08T05:11:41;100637.78;;;0.28;100.00
19748;BME280;10032;51.386;12.516;2024-03-08T05:14:08;100645.59;;;0.21;100.00
19748;BME280;10032;51.386;12.516;2024-03-08T05:16:33;100647.44;;;0.21;100.00
19748;BME280;10032;51.386;12.516;2024-03-08T05:18:59;100636.97;;;0.19;100.00
19748;BME280;10032;51.386;12.516;2024-03-08T05:21:24;100641.28;;;0.20;100.00
19748;BME280;10032;51.386;12.516;2024-03-08T05:23:50;100642.63;;;0.16;100.00
19748;BME280;10032;51.386;12.516;2024-03-08T05:26:16;100643.47;;;0.17;100.00
19748;BME280;10032;51.386;12.516;2024-03-08T05:28:42;100637.66;;;0.13;100.00
19748;BME280;10032;51.386;12.516;2024-03-08T05:31:07;100636.34;;;0.09;100.00
19748;BME280;10032;51.386;12.516;2024-03-08T05:33:33;100635.97;;;0.12;100.00
19748;BME280;10032;51.386;12.516;2024-03-08T05:36:02;100629.31;;;0.16;100.00
19748;BME280;10032;51.386;12.516;2024-03-08T05:38:27;100624.66;;;0.18;100.00
19748;BME280;10032;51.386;12.516;2024-03-08T05:40:53;100629.97;;;0.18;100.00
19748;BME280;10032;51.386;12.516;2024-03-08T05:43:19;100621.78;;;0.20;100.00
19748;BME280;10032;51.386;12.516;2024-03-08T05:45:45;100626.78;;;0.23;100.00
19748;BME280;10032;51.386;12.516;2024-03-08T05:48:11;100637.63;;;0.21;100.00
19748;BME280;10032;51.386;12.516;2024-03-08T05:50:39;100624.66;;;0.18;100.00
19748;BME280;10032;51.386;12.516;2024-03-08T05:53:04;100623.34;;;0.14;100.00
19748;BME280;10032;51.386;12.516;2024-03-08T05:55:33;100626.63;;;0.16;100.00
19748;BME280;10032;51.386;12.516;2024-03-08T05:58:01;100624.66;;;0.18;100.00
19748;BME280;10032;51.386;12.516;2024-03-08T06:00:27;100628.31;;;0.17;100.00
19748;BME280;10032;51.386;12.516;2024-03-08T06:02:52;100620.97;;;0.19;100.00
19748;BME280;10032;51.386;12.516;2024-03-08T06:05:18;100630.28;;;0.23;100.00
19748;BME280;10032;51.386;12.516;2024-03-08T06:07:43;100627.59;;;0.23;100.00
19748;BME280;10032;51.386;12.516;2024-03-08T06:10:09;100626.97;;;0.21;100.00
19748;BME280;10032;51.386;12.516;2024-03-08T06:12:36;100628.78;;;0.21;100.00
19748;BME280;10032;51.386;12.516;2024-03-08T06:15:06;100624.63;;;0.26;100.00
19748;BME280;10032;51.386;12.516;2024-03-08T06:17:31;100628.75;;;0.29;100.00
19748;BME280;10032;51.386;12.516;2024-03-08T06:19:57;100621.94;;;0.34;100.00
19748;BME280;10032;51.386;12.516;2024-03-08T06:22:22;100630.75;;;0.35;100.00
19748;BME280;10032;51.386;12.516;2024-03-08T06:24:47;100625.88;;;0.38;100.00
19748;BME280;10032;51.386;12.516;2024-03-08T06:27:13;100622.72;;;0.43;100.00
19748;BME280;10032;51.386;12.516;2024-03-08T06:29:39;100622.91;;;0.41;100.00
19748;BME280;10032;51.386;12.516;2024-03-08T06:32:05;100625.19;;;0.44;100.00
19748;BME280;10032;51.386;12.516;2024-03-08T06:34:32;100623.22;;;0.46;100.00
19748;BME280;10032;51.386;12.516;2024-03-08T06:36:59;100615.53;;;0.43;100.00
19748;BME280;10032;51.386;12.516;2024-03-08T06:39:27;100625.19;;;0.44;100.00
19748;BME280;10032;51.386;12.516;2024-03-08T06:41:52;100616.22;;;0.45;100.00
19748;BME280;10032;51.386;12.516;2024-03-08T06:44:17;100623.53;;;0.43;100.00
19748;BME280;10032;51.386;12.516;2024-03-08T06:46:43;100618.88;;;0.45;100.00
19748;BME280;10032;51.386;12.516;2024-03-08T06:49:08;100614.69;;;0.51;100.00
19748;BME280;10032;51.386;12.516;2024-03-08T06:51:35;100605.69;;;0.52;100.00
19748;BME280;10032;51.386;12.516;2024-03-08T06:54:01;100611.31;;;0.57;100.00
19748;BME280;10032;51.386;12.516;2024-03-08T06:56:26;100613.66;;;0.60;100.00
19748;BME280;10032;51.386;12.516;2024-03-08T06:58:53;100610.91;;;0.68;100.00
19748;BME280;10032;51.386;12.516;2024-03-08T07:01:18;100609.03;;;0.76;100.00
19748;BME280;10032;51.386;12.516;2024-03-08T07:03:44;100613.19;;;0.79;100.00
19748;BME280;10032;51.386;12.516;2024-03-08T07:06:12;100613.78;;;0.89;100.00
19748;BME280;10032;51.386;12.516;2024-03-08T07:08:39;100609.75;;;1.01;100.00
19748;BME280;10032;51.386;12.516;2024-03-08T07:11:05;100612.16;;;1.10;100.00
19748;BME280;10032;51.386;12.516;2024-03-08T07:13:30;100612.03;;;1.26;100.00
19748;BME280;10032;51.386;12.516;2024-03-08T07:15:56;100609.59;;;1.39;100.00
19748;BME280;10032;51.386;12.516;2024-03-08T07:18:21;100609.88;;;1.44;100.00
19748;BME280;10032;51.386;12.516;2024-03-08T07:20:47;100599.97;;;1.53;100.00
19748;BME280;10032;51.386;12.516;2024-03-08T07:23:12;100610.22;;;1.64;100.00
19748;BME280;10032;51.386;12.516;2024-03-08T07:25:58;100614.28;;;1.74;100.00
19748;BME280;10032;51.386;12.516;2024-03-08T07:28:23;100610.06;;;1.80;100.00
19748;BME280;10032;51.386;12.516;2024-03-08T07:30:49;100603.53;;;1.82;100.00
19748;BME280;10032;51.386;12.516;2024-03-08T07:33:14;100598.94;;;1.91;100.00
19748;BME280;10032;51.386;12.516;2024-03-08T07:35:40;100599.84;;;1.98;100.00
19748;BME280;10032;51.386;12.516;2024-03-08T07:38:06;100589.72;;;2.08;100.00
19748;BME280;10032;51.386;12.516;2024-03-08T07:40:37;100589.72;;;2.22;100.00
19748;BME280;10032;51.386;12.516;2024-03-08T07:43:12;100583.06;;;2.18;100.00
19748;BME280;10032;51.386;12.516;2024-03-08T07:45:38;100585.28;;;2.29;100.00
19748;BME280;10032;51.386;12.516;2024-03-08T07:48:04;100583.63;;;2.43;100.00
19748;BME280;10032;51.386;12.516;2024-03-08T07:50:36;100575.44;;;2.65;100.00
19748;BME280;10032;51.386;12.516;2024-03-08T07:53:02;100577.63;;;2.76;100.00
19748;BME280;10032;51.386;12.516;2024-03-08T07:55:29;100585.78;;;2.68;100.00
19748;BME280;10032;51.386;12.516;2024-03-08T07:57:56;100570.53;;;2.83;100.00
19748;BME280;10032;51.386;12.516;2024-03-08T08:00:22;100572.56;;;3.02;100.00
19748;BME280;10032;51.386;12.516;2024-03-08T08:02:49;100578.06;;;3.15;100.00
19748;BME280;10032;51.386;12.516;2024-03-08T08:05:15;100572.81;;;3.28;100.00
19748;BME280;10032;51.386;12.516;2024-03-08T08:07:44;100572.03;;;3.34;100.00
19748;BME280;10032;51.386;12.516;2024-03-08T08:10:12;100567.38;;;3.43;100.00
19748;BME280;10032;51.386;12.516;2024-03-08T08:12:43;100568.94;;;3.58;100.00
19748;BME280;10032;51.386;12.516;2024-03-08T08:15:09;100563.19;;;3.61;100.00
19748;BME280;10032;51.386;12.516;2024-03-08T08:17:34;100568.59;;;3.68;100.00
19748;BME280;10032;51.386;12.516;2024-03-08T08:20:00;100566.22;;;3.79;100.00
19748;BME280;10032;51.386;12.516;2024-03-08T08:22:25;100557.25;;;3.93;100.00
19748;BME280;10032;51.386;12.516;2024-03-08T08:24:51;100547.44;;;4.13;100.00
19748;BME280;10032;51.386;12.516;2024-03-08T08:27:17;100545.88;;;4.32;100.00
19748;BME280;10032;51.386;12.516;2024-03-08T08:29:42;100546.13;;;4.37;100.00
19748;BME280;10032;51.386;12.516;2024-03-08T08:32:08;100547.00;;;4.44;100.00
19748;BME280;10032;51.386;12.516;2024-03-08T08:34:35;100542.28;;;4.52;100.00
19748;BME280;10032;51.386;12.516;2024-03-08T08:37:01;100537.16;;;4.70;100.00
19748;BME280;10032;51.386;12.516;2024-03-08T08:39:26;100547.50;;;4.73;100.00
19748;BME280;10032;51.386;12.516;2024-03-08T08:41:53;100547.09;;;4.70;100.00
19748;BME280;10032;51.386;12.516;2024-03-08T08:44:18;100549.53;;;4.71;100.00
19748;BME280;10032;51.386;12.516;2024-03-08T08:46:43;100543.63;;;4.95;100.00
19748;BME280;10032;51.386;12.516;2024-03-08T08:49:09;100555.41;;;4.94;100.00
19748;BME280;10032;51.386;12.516;2024-03-08T08:51:40;100544.88;;;4.99;100.00
19748;BME280;10032;51.386;12.516;2024-03-08T08:54:05;100538.09;;;5.16;100.00
19748;BME280;10032;51.386;12.516;2024-03-08T08:56:31;100543.66;;;5.34;100.00
19748;BME280;10032;51.386;12.516;2024-03-08T08:58:57;100541.59;;;5.49;100.00
19748;BME280;10032;51.386;12.516;2024-03-08T09:01:23;100550.28;;;5.51;100.00
19748;BME280;10032;51.386;12.516;2024-03-08T09:03:48;100537.47;;;5.60;100.00
19748;BME280;10032;51.386;12.516;2024-03-08T09:06:15;100544.72;;;5.66;100.00
19748;BME280;10032;51.386;12.516;2024-03-08T09:08:41;100534.56;;;5.87;100.00
19748;BME280;10032;51.386;12.516;2024-03-08T09:11:07;100538.88;;;6.08;100.00
19748;BME280;10032;51.386;12.516;2024-03-08T09:13:33;100537.38;;;6.25;100.00
19748;BME280;10032;51.386;12.516;2024-03-08T09:16:02;100536.13;;;6.27;100.00
19748;BME280;10032;51.386;12.516;2024-03-08T09:18:28;100534.03;;;6.29;100.00
19748;BME280;10032;51.386;12.516;2024-03-08T09:20:54;100530.75;;;6.27;100.00
19748;BME280;10032;51.386;12.516;2024-03-08T09:23:20;100514.72;;;6.45;100.00
19748;BME280;10032;51.386;12.516;2024-03-08T09:25:45;100522.28;;;6.61;100.00
19748;BME280;10032;51.386;12.516;2024-03-08T09:28:11;100518.63;;;6.56;100.00
19748;BME280;10032;51.386;12.516;2024-03-08T09:30:38;100513.84;;;6.51;100.00
19748;BME280;10032;51.386;12.516;2024-03-08T09:33:04;100512.75;;;6.65;100.00
19748;BME280;10032;51.386;12.516;2024-03-08T09:35:29;100502.69;;;6.85;100.00
19748;BME280;10032;51.386;12.516;2024-03-08T09:37:55;100505.56;;;6.90;100.00
19748;BME280;10032;51.386;12.516;2024-03-08T09:40:21;100503.78;;;6.78;100.00
19748;BME280;10032;51.386;12.516;2024-03-08T09:42:48;100502.25;;;6.88;100.00
19748;BME280;10032;51.386;12.516;2024-03-08T09:45:14;100495.25;;;7.12;100.00
19748;BME280;10032;51.386;12.516;2024-03-08T09:47:44;100488.69;;;7.32;100.00
19748;BME280;10032;51.386;12.516;2024-03-08T09:50:10;100489.91;;;7.36;100.00
19748;BME280;10032;51.386;12.516;2024-03-08T09:52:38;100488.13;;;7.48;100.00
19748;BME280;10032;51.386;12.516;2024-03-08T09:55:06;100480.06;;;7.66;100.00
19748;BME280;10032;51.386;12.516;2024-03-08T09:57:33;100484.13;;;7.75;100.00
19748;BME280;10032;51.386;12.516;2024-03-08T09:59:59;100480.53;;;7.99;100.00
19748;BME280;10032;51.386;12.516;2024-03-08T10:02:24;100478.44;;;8.01;100.00
19748;BME280;10032;51.386;12.516;2024-03-08T10:04:51;100467.81;;;8.24;100.00
19748;BME280;10032;51.386;12.516;2024-03-08T10:07:18;100463.63;;;8.28;100.00
19748;BME280;10032;51.386;12.516;2024-03-08T10:09:44;100467.31;;;8.45;100.00
19748;BME280;10032;51.386;12.516;2024-03-08T10:12:16;100463.91;;;8.38;100.00
19748;BME280;10032;51.386;12.516;2024-03-08T10:14:42;100462.94;;;8.62;100.00
19748;BME280;10032;51.386;12.516;2024-03-08T10:17:08;100460.50;;;8.72;100.00
19748;BME280;10032;51.386;12.516;2024-03-08T10:19:33;100455.38;;;8.82;100.00
19748;BME280;10032;51.386;12.516;2024-03-08T10:21:59;100455.31;;;9.00;100.00
19748;BME280;10032;51.386;12.516;2024-03-08T10:24:25;100444.41;;;9.18;100.00
19748;BME280;10032;51.386;12.516;2024-03-08T10:26:58;100451.47;;;9.19;100.00
19748;BME280;10032;51.386;12.516;2024-03-08T10:29:25;100443.03;;;9.27;100.00
19748;BME280;10032;51.386;12.516;2024-03-08T10:31:50;100444.06;;;9.49;100.00
19748;BME280;10032;51.386;12.516;2024-03-08T10:34:16;100433.97;;;9.56;100.00
19748;BME280;10032;51.386;12.516;2024-03-08T10:36:42;100433.13;;;9.67;100.00
19748;BME280;10032;51.386;12.516;2024-03-08T10:39:21;100438.78;;;9.66;100.00
19748;BME280;10032;51.386;12.516;2024-03-08T10:41:52;100438.66;;;9.72;100.00
19748;BME280;10032;51.386;12.516;2024-03-08T10:44:43;100423.81;;;9.86;100.00
19748;BME280;10032;51.386;12.516;2024-03-08T10:47:18;100430.03;;;9.87;98.48
19748;BME280;10032;51.386;12.516;2024-03-08T10:52:14;100427.31;;;9.87;96.70
19748;BME280;10032;51.386;12.516;2024-03-08T10:54:40;100423.44;;;9.94;98.03
19748;BME280;10032;51.386;12.516;2024-03-08T10:57:09;100414.59;;;10.10;98.63
19748;BME280;10032;51.386;12.516;2024-03-08T10:59:37;100425.78;;;10.02;97.08
19748;BME280;10032;51.386;12.516;2024-03-08T11:02:03;100425.94;;;9.84;93.95
19748;BME280;10032;51.386;12.516;2024-03-08T11:04:31;100413.94;;;9.80;94.10
19748;BME280;10032;51.386;12.516;2024-03-08T11:07:02;100405.44;;;10.00;95.72
19748;BME280;10032;51.386;12.516;2024-03-08T11:09:35;100410.09;;;10.27;93.69
19748;BME280;10032;51.386;12.516;2024-03-08T11:12:21;100400.69;;;10.46;94.59
19748;BME280;10032;51.386;12.516;2024-03-08T11:14:51;100395.28;;;10.46;91.84
19748;BME280;10032;51.386;12.516;2024-03-08T11:17:20;100395.81;;;10.32;92.28
19748;BME280;10032;51.386;12.516;2024-03-08T11:19:48;100388.47;;;10.16;90.65
19748;BME280;10032;51.386;12.516;2024-03-08T11:22:21;100389.56;;;10.31;91.54
19748;BME280;10032;51.386;12.516;2024-03-08T11:24:49;100392.97;;;10.38;91.50
19748;BME280;10032;51.386;12.516;2024-03-08T11:27:15;100375.94;;;10.54;89.95
19748;BME280;10032;51.386;12.516;2024-03-08T11:29:40;100379.38;;;10.66;87.71
19748;BME280;10032;51.386;12.516;2024-03-08T11:32:14;100374.91;;;10.72;86.92
19748;BME280;10032;51.386;12.516;2024-03-08T11:34:47;100376.81;;;10.60;83.96
19748;BME280;10032;51.386;12.516;2024-03-08T11:37:19;100374.63;;;10.73;86.57
19748;BME280;10032;51.386;12.516;2024-03-08T11:42:15;100363.56;;;10.91;87.00
19748;BME280;10032;51.386;12.516;2024-03-08T11:44:44;100362.06;;;11.00;86.16
19748;BME280;10032;51.386;12.516;2024-03-08T11:47:14;100356.16;;;11.03;86.92
19748;BME280;10032;51.386;12.516;2024-03-08T11:49:40;100355.09;;;10.88;85.57
19748;BME280;10032;51.386;12.516;2024-03-08T11:52:12;100362.41;;;11.04;85.72
19748;BME280;10032;51.386;12.516;2024-03-08T11:54:38;100362.97;;;11.06;85.75
19748;BME280;10032;51.386;12.516;2024-03-08T11:57:04;100356.03;;;11.31;85.71
19748;BME280;10032;51.386;12.516;2024-03-08T11:59:29;100350.13;;;11.34;84.51
19748;BME280;10032;51.386;12.516;2024-03-08T12:02:00;100350.66;;;11.15;82.96
19748;BME280;10032;51.386;12.516;2024-03-08T12:04:27;100343.75;;;11.07;82.20
19748;BME280;10032;51.386;12.516;2024-03-08T12:06:53;100333.16;;;11.06;81.68
19748;BME280;10032;51.386;12.516;2024-03-08T12:09:18;100331.84;;;11.08;80.75
19748;BME280;10032;51.386;12.516;2024-03-08T12:11:47;100323.75;;;11.30;81.91
19748;BME280;10032;51.386;12.516;2024-03-08T12:14:13;100315.56;;;11.63;82.95
19748;BME280;10032;51.386;12.516;2024-03-08T12:16:38;100310.94;;;11.63;79.76
19748;BME280;10032;51.386;12.516;2024-03-08T12:19:04;100314.56;;;11.52;79.15
19748;BME280;10032;51.386;12.516;2024-03-08T12:21:31;100302.16;;;11.78;80.81
19748;BME280;10032;51.386;12.516;2024-03-08T12:24:09;100295.78;;;11.89;81.55
19748;BME280;10032;51.386;12.516;2024-03-08T12:26:36;100297.28;;;11.80;77.42
19748;BME280;10032;51.386;12.516;2024-03-08T12:29:15;100292.00;;;11.68;79.01
19748;BME280;10032;51.386;12.516;2024-03-08T12:31:42;100293.31;;;11.66;79.35
19748;BME280;10032;51.386;12.516;2024-03-08T12:34:08;100289.63;;;11.55;78.60
19748;BME280;10032;51.386;12.516;2024-03-08T12:36:35;100285.34;;;11.38;77.47
19748;BME280;10032;51.386;12.516;2024-03-08T12:39:05;100283.13;;;11.56;80.54
19748;BME280;10032;51.386;12.516;2024-03-08T12:41:32;100274.59;;;11.26;78.32
19748;BME280;10032;51.386;12.516;2024-03-08T12:43:57;100272.09;;;11.41;79.23